Annapolis, Indiana
Current Conditions -  °F | °C
As of 5:55 AM on Friday 24 Oct 2014 (Local Time) from KPRG Reporting Station
Overcast Overcast  
Wind Chill:   Ceiling: 2800
Heat Index:   Visibility: 10mi
Dew Point:   Wind: 3mph
Humidity: 93%   Direction: 140°SE
Pressure: 30.1"   Gusts: NA
Location:  39.8468°N, 87.2662°W
Report Text: KPRG 240955Z AUTO 14003KT 10SM OVC028 09/08 A3010 RMK AO2 T00940084
Loading
Personal Weather Stations






























Interactive Weather Map
Tropical Storm Tracking
New forecast layout! Learn more

10-Day Weather Forecast

Advertisements
Track Severe Weather on mobile